createdAt,value
2022-12-31T00:01:18.140Z,100.00
2022-12-31T00:03:46.270Z,100.00
2022-12-31T00:06:31.904Z,100.00
2022-12-31T00:09:01.027Z,100.00
2022-12-31T00:11:29.797Z,100.00
2022-12-31T00:13:57.743Z,100.00
2022-12-31T00:16:27.637Z,100.00
2022-12-31T00:18:58.347Z,100.00
2022-12-31T00:21:26.912Z,100.00
2022-12-31T00:23:54.021Z,100.00
2022-12-31T00:26:23.691Z,100.00
2022-12-31T00:28:52.452Z,100.00
2022-12-31T00:31:24.682Z,100.00
2022-12-31T00:33:52.237Z,100.00
2022-12-31T00:36:25.197Z,100.00
2022-12-31T00:38:53.626Z,100.00
2022-12-31T00:41:21.448Z,100.00
2022-12-31T00:43:48.956Z,100.00
2022-12-31T00:46:17.178Z,100.00
2022-12-31T00:48:44.616Z,100.00
2022-12-31T00:51:14.425Z,100.00
2022-12-31T00:53:41.822Z,100.00
2022-12-31T00:56:18.731Z,100.00
2022-12-31T00:58:46.808Z,100.00
2022-12-31T01:01:40.286Z,100.00
2022-12-31T01:04:13.941Z,100.00
2022-12-31T01:06:43.066Z,100.00
2022-12-31T01:09:11.672Z,100.00
2022-12-31T01:11:38.692Z,100.00
2022-12-31T01:14:07.579Z,100.00
2022-12-31T01:16:41.307Z,100.00
2022-12-31T01:19:11.419Z,100.00
2022-12-31T01:21:40.406Z,100.00
2022-12-31T01:24:08.800Z,100.00
2022-12-31T01:26:36.801Z,100.00
2022-12-31T01:29:05.354Z,100.00
2022-12-31T01:31:33.802Z,100.00
2022-12-31T01:34:00.965Z,100.00
2022-12-31T01:36:30.743Z,100.00
2022-12-31T01:39:00.608Z,100.00
2022-12-31T01:41:31.172Z,100.00
2022-12-31T01:44:22.753Z,100.00
2022-12-31T01:46:54.445Z,100.00
2022-12-31T01:49:30.999Z,100.00
2022-12-31T01:52:06.478Z,100.00
2022-12-31T01:54:40.778Z,100.00
2022-12-31T01:57:09.574Z,100.00
2022-12-31T01:59:36.903Z,100.00
2022-12-31T02:02:05.623Z,100.00
2022-12-31T02:04:33.046Z,100.00
2022-12-31T02:07:03.109Z,100.00
2022-12-31T02:09:31.297Z,100.00
2022-12-31T02:11:58.392Z,100.00
2022-12-31T02:14:35.116Z,100.00
2022-12-31T02:17:39.950Z,100.00
2022-12-31T02:20:38.176Z,100.00
2022-12-31T02:23:41.475Z,100.00
2022-12-31T02:26:41.828Z,100.00
2022-12-31T02:29:30.872Z,100.00
2022-12-31T02:32:03.989Z,100.00
2022-12-31T02:34:37.581Z,100.00
2022-12-31T02:37:10.296Z,100.00
2022-12-31T02:39:38.184Z,100.00
2022-12-31T02:42:05.366Z,100.00
2022-12-31T02:44:35.034Z,100.00
2022-12-31T02:47:08.107Z,100.00
2022-12-31T02:49:47.233Z,100.00
2022-12-31T02:52:43.967Z,100.00
2022-12-31T02:55:24.383Z,100.00
2022-12-31T02:58:28.431Z,100.00
2022-12-31T03:00:57.983Z,100.00
2022-12-31T03:03:26.872Z,100.00
2022-12-31T03:05:55.469Z,100.00
2022-12-31T03:08:23.969Z,99.92
2022-12-31T03:11:01.998Z,99.59
2022-12-31T03:13:29.134Z,99.28
2022-12-31T03:15:56.278Z,98.15
2022-12-31T03:18:23.478Z,98.26
2022-12-31T03:20:51.289Z,97.87
2022-12-31T03:23:31.321Z,97.87
2022-12-31T03:25:59.945Z,98.39
2022-12-31T03:28:30.070Z,98.55
2022-12-31T03:31:00.183Z,97.96
2022-12-31T03:33:34.904Z,98.13
2022-12-31T03:36:10.384Z,98.18
2022-12-31T03:38:38.031Z,98.08
2022-12-31T03:41:05.339Z,97.78
2022-12-31T03:43:32.433Z,97.76
2022-12-31T03:45:59.717Z,97.88
2022-12-31T03:48:27.137Z,97.41
2022-12-31T03:50:54.463Z,97.27
2022-12-31T03:53:21.493Z,97.25
2022-12-31T03:55:53.268Z,97.60
2022-12-31T03:58:20.400Z,97.06
2022-12-31T04:00:47.350Z,96.51
2022-12-31T04:03:17.632Z,96.49
2022-12-31T04:05:44.765Z,96.66
2022-12-31T04:08:11.798Z,96.44
2022-12-31T04:10:38.798Z,96.53
2022-12-31T04:13:05.827Z,96.62
2022-12-31T04:15:32.882Z,96.49
2022-12-31T04:17:59.998Z,96.92
2022-12-31T04:20:27.144Z,96.72
2022-12-31T04:22:54.207Z,96.37
2022-12-31T04:25:21.248Z,96.27
2022-12-31T04:27:48.260Z,96.36
2022-12-31T04:30:15.505Z,96.70
2022-12-31T04:32:42.565Z,96.31
2022-12-31T04:35:10.813Z,95.99
2022-12-31T04:37:37.896Z,95.99
2022-12-31T04:40:07.018Z,95.71
2022-12-31T04:42:35.035Z,95.93
2022-12-31T04:45:02.259Z,95.97
2022-12-31T04:47:29.323Z,95.57
2022-12-31T04:49:56.373Z,96.02
2022-12-31T04:52:23.449Z,95.97
2022-12-31T04:54:50.484Z,96.20
2022-12-31T04:57:17.620Z,95.70
2022-12-31T04:59:44.696Z,95.81
2022-12-31T05:02:11.868Z,95.33
2022-12-31T05:04:39.219Z,95.93
2022-12-31T05:07:06.331Z,95.90
2022-12-31T05:09:33.412Z,95.94
2022-12-31T05:12:00.539Z,95.27
2022-12-31T05:14:27.621Z,95.75
2022-12-31T05:16:54.743Z,94.89
2022-12-31T05:19:21.783Z,95.58
2022-12-31T05:21:48.886Z,95.60
2022-12-31T05:24:16.062Z,95.19
2022-12-31T05:26:43.094Z,95.14
2022-12-31T05:29:10.271Z,95.29
2022-12-31T05:31:37.342Z,95.13
2022-12-31T05:34:04.377Z,94.95
2022-12-31T05:36:31.581Z,94.92
2022-12-31T05:38:58.645Z,94.79
2022-12-31T05:41:25.673Z,94.77
2022-12-31T05:43:52.681Z,94.21
2022-12-31T05:46:19.832Z,94.63
2022-12-31T05:48:47.006Z,94.75
2022-12-31T05:51:14.000Z,94.74
2022-12-31T05:53:41.126Z,94.34
2022-12-31T05:56:08.154Z,95.04
2022-12-31T05:58:35.134Z,94.85
2022-12-31T06:01:02.220Z,95.01
2022-12-31T06:03:29.309Z,94.52
2022-12-31T06:05:56.439Z,94.14
2022-12-31T06:08:23.437Z,93.50
2022-12-31T06:10:50.403Z,93.95
2022-12-31T06:13:17.440Z,93.74
2022-12-31T06:15:44.496Z,94.13
2022-12-31T06:18:12.251Z,93.64
2022-12-31T06:20:39.262Z,94.04
2022-12-31T06:23:06.412Z,93.91
2022-12-31T06:25:35.700Z,93.46
2022-12-31T06:28:04.385Z,93.36
2022-12-31T06:30:31.917Z,93.39
2022-12-31T06:32:58.994Z,93.53
2022-12-31T06:35:25.982Z,92.87
2022-12-31T06:37:53.190Z,92.63
2022-12-31T06:40:20.208Z,92.58
2022-12-31T06:42:47.238Z,92.35
2022-12-31T06:45:14.267Z,91.87
2022-12-31T06:47:41.375Z,92.42
2022-12-31T06:50:08.998Z,92.06
2022-12-31T06:52:36.354Z,92.29
2022-12-31T06:55:04.530Z,91.87
2022-12-31T06:57:31.839Z,91.99
2022-12-31T06:59:59.426Z,91.30
2022-12-31T07:02:34.078Z,91.68
2022-12-31T07:05:13.101Z,92.13
2022-12-31T07:08:11.602Z,91.84
2022-12-31T07:11:18.459Z,91.44
2022-12-31T07:14:18.745Z,91.17
2022-12-31T07:17:08.308Z,91.52
2022-12-31T07:19:59.664Z,91.26
2022-12-31T07:22:27.180Z,90.63
2022-12-31T07:24:54.700Z,91.34
2022-12-31T07:27:54.162Z,91.85
2022-12-31T07:30:53.899Z,91.81
2022-12-31T07:33:39.746Z,91.26
2022-12-31T07:36:31.752Z,91.07
2022-12-31T07:39:05.918Z,91.58
2022-12-31T07:42:01.119Z,91.15
2022-12-31T07:44:45.330Z,90.77
2022-12-31T07:47:20.907Z,90.66
2022-12-31T07:49:48.643Z,91.05
2022-12-31T07:52:16.240Z,90.71
2022-12-31T07:54:43.630Z,90.36
2022-12-31T07:57:12.949Z,90.64
2022-12-31T07:59:51.826Z,90.13
2022-12-31T08:02:21.694Z,90.27
2022-12-31T08:05:13.538Z,90.85
2022-12-31T08:07:58.287Z,90.11
2022-12-31T08:10:52.373Z,90.59
2022-12-31T08:13:23.503Z,89.61
2022-12-31T08:15:50.898Z,89.60
2022-12-31T08:18:18.117Z,89.91
2022-12-31T08:21:00.551Z,89.41
2022-12-31T08:23:58.401Z,88.34
2022-12-31T08:26:54.851Z,89.18
2022-12-31T08:29:33.701Z,89.02
2022-12-31T08:32:16.772Z,89.17
2022-12-31T08:35:03.078Z,88.88
2022-12-31T08:37:41.640Z,88.63
2022-12-31T08:40:31.515Z,88.49
2022-12-31T08:43:30.215Z,87.92
2022-12-31T08:45:58.458Z,88.02
2022-12-31T08:48:43.789Z,87.85
2022-12-31T08:51:29.342Z,87.75
2022-12-31T08:53:56.709Z,88.43
2022-12-31T08:56:32.526Z,88.36
2022-12-31T08:59:24.353Z,87.75
2022-12-31T09:02:07.565Z,87.87
2022-12-31T09:05:12.359Z,87.49
2022-12-31T09:07:58.075Z,87.18
2022-12-31T09:10:54.030Z,86.65
2022-12-31T09:13:40.244Z,87.35
2022-12-31T09:16:39.640Z,86.75
2022-12-31T09:19:09.370Z,86.63
2022-12-31T09:21:36.606Z,86.95
2022-12-31T09:24:09.356Z,86.86
2022-12-31T09:26:55.564Z,86.11
2022-12-31T09:29:47.832Z,86.47
2022-12-31T09:32:28.431Z,86.11
2022-12-31T09:35:03.988Z,86.87
2022-12-31T09:37:42.292Z,86.58
2022-12-31T09:40:45.972Z,86.59
2022-12-31T09:43:54.557Z,86.17
2022-12-31T09:47:02.617Z,85.48
2022-12-31T09:49:58.063Z,85.92
2022-12-31T09:52:38.828Z,84.62
2022-12-31T09:55:31.142Z,85.34
2022-12-31T09:58:21.115Z,84.82
2022-12-31T10:00:57.897Z,84.37
2022-12-31T10:03:43.572Z,85.07
2022-12-31T10:06:28.539Z,84.39
2022-12-31T10:09:25.543Z,83.66
2022-12-31T10:12:21.005Z,83.61
2022-12-31T10:15:03.434Z,84.47
2022-12-31T10:17:56.429Z,83.29
2022-12-31T10:20:25.795Z,83.74
2022-12-31T10:23:17.799Z,83.11
2022-12-31T10:26:07.386Z,82.71
2022-12-31T10:28:59.625Z,83.91
2022-12-31T10:31:40.636Z,83.05
2022-12-31T10:34:16.911Z,82.29
2022-12-31T10:37:06.693Z,82.22
2022-12-31T10:40:03.849Z,81.46
2022-12-31T10:42:45.971Z,81.41
2022-12-31T10:45:41.140Z,82.32
2022-12-31T10:48:23.366Z,82.41
2022-12-31T10:51:27.891Z,81.36
2022-12-31T10:54:16.070Z,81.87
2022-12-31T10:56:53.970Z,81.68
2022-12-31T10:59:33.296Z,81.54
2022-12-31T11:02:01.452Z,80.97
2022-12-31T11:04:51.695Z,80.67
2022-12-31T11:07:45.599Z,80.44
2022-12-31T11:14:24.691Z,78.94
2022-12-31T11:17:04.947Z,78.63
2022-12-31T11:20:04.030Z,79.34
2022-12-31T11:22:55.485Z,79.58
2022-12-31T11:25:38.798Z,79.17
2022-12-31T11:28:23.999Z,79.25
2022-12-31T11:31:11.801Z,79.28
2022-12-31T11:34:00.482Z,78.93
2022-12-31T11:36:59.860Z,78.89
2022-12-31T11:39:49.626Z,78.50
2022-12-31T11:42:47.540Z,78.86
2022-12-31T11:45:42.269Z,78.71
2022-12-31T11:48:31.836Z,77.13
2022-12-31T11:51:14.592Z,77.97
2022-12-31T11:54:35.403Z,77.40
2022-12-31T11:57:16.735Z,78.45
2022-12-31T11:59:44.938Z,77.49
2022-12-31T12:02:33.293Z,77.92
2022-12-31T12:05:10.277Z,77.77
2022-12-31T12:07:38.463Z,77.54
2022-12-31T12:10:16.986Z,77.45
2022-12-31T12:12:47.847Z,76.72
2022-12-31T12:15:24.806Z,75.57
2022-12-31T12:17:54.609Z,77.25
2022-12-31T12:20:30.707Z,76.54
2022-12-31T12:23:00.963Z,76.53
2022-12-31T12:25:38.237Z,76.17
2022-12-31T12:28:18.631Z,76.53
2022-12-31T12:30:54.417Z,76.10
2022-12-31T12:33:21.515Z,77.06
2022-12-31T12:35:54.039Z,76.36
2022-12-31T12:38:23.482Z,76.48
2022-12-31T12:41:21.077Z,77.31
2022-12-31T12:43:48.161Z,77.54
2022-12-31T12:46:31.129Z,76.80
2022-12-31T12:48:58.642Z,76.89
2022-12-31T12:52:03.297Z,77.43
2022-12-31T12:54:41.712Z,76.22
2022-12-31T12:57:47.890Z,76.86
2022-12-31T13:00:37.290Z,76.18
2022-12-31T13:03:29.790Z,74.97
2022-12-31T13:06:33.583Z,76.64
2022-12-31T13:09:17.174Z,76.32
2022-12-31T13:12:12.021Z,76.40
2022-12-31T13:14:41.691Z,76.36
2022-12-31T13:17:40.940Z,76.08
2022-12-31T13:20:26.395Z,77.23
2022-12-31T13:23:07.043Z,76.18
2022-12-31T13:25:38.489Z,76.51
2022-12-31T13:28:11.953Z,77.28
2022-12-31T13:30:47.167Z,77.28
2022-12-31T13:33:24.323Z,77.68
2022-12-31T13:35:58.260Z,77.20
2022-12-31T13:38:41.899Z,78.07
2022-12-31T13:41:23.975Z,79.12
2022-12-31T13:44:02.898Z,79.21
2022-12-31T13:46:44.873Z,79.33
2022-12-31T13:49:21.393Z,79.36
2022-12-31T13:51:58.743Z,79.49
2022-12-31T13:54:36.311Z,79.46
2022-12-31T13:57:11.327Z,79.98
2022-12-31T13:59:42.465Z,79.52
2022-12-31T14:02:29.168Z,79.38
2022-12-31T14:05:11.725Z,79.75
2022-12-31T14:07:46.992Z,79.99
2022-12-31T14:10:15.344Z,79.42
2022-12-31T14:12:53.921Z,79.72
2022-12-31T14:15:33.347Z,80.50
2022-12-31T14:18:17.508Z,80.44
2022-12-31T14:21:20.992Z,80.81
2022-12-31T14:24:03.049Z,80.81
2022-12-31T14:26:43.041Z,81.07
2022-12-31T14:29:10.018Z,80.74
2022-12-31T14:31:45.929Z,80.49
2022-12-31T14:34:15.615Z,80.20
2022-12-31T14:36:54.797Z,80.90
2022-12-31T14:39:43.244Z,79.36
2022-12-31T14:42:38.900Z,80.42
2022-12-31T14:45:39.021Z,80.96
2022-12-31T14:48:31.829Z,80.87
2022-12-31T14:51:04.056Z,80.84
2022-12-31T14:53:31.319Z,80.65
2022-12-31T14:56:01.997Z,81.60
2022-12-31T14:58:38.552Z,81.48
2022-12-31T15:01:18.975Z,81.88
2022-12-31T15:03:46.540Z,82.36
2022-12-31T15:06:22.362Z,82.30
2022-12-31T15:08:52.403Z,83.17
2022-12-31T15:11:27.729Z,83.14
2022-12-31T15:14:00.945Z,83.56
2022-12-31T15:17:04.196Z,83.94
2022-12-31T15:19:49.964Z,84.72
2022-12-31T15:22:46.697Z,84.97
2022-12-31T15:25:40.024Z,85.54
2022-12-31T15:28:28.554Z,86.03
2022-12-31T15:31:02.241Z,86.09
2022-12-31T15:33:36.331Z,84.77
2022-12-31T15:36:14.820Z,83.41
2022-12-31T15:38:43.136Z,84.29
2022-12-31T15:42:03.001Z,82.90
2022-12-31T15:44:54.889Z,83.28
2022-12-31T15:47:41.363Z,82.41
2022-12-31T15:50:17.111Z,81.58
2022-12-31T15:52:53.821Z,81.14
2022-12-31T15:55:39.882Z,80.94
2022-12-31T15:58:12.007Z,81.19
2022-12-31T16:01:04.623Z,80.98
2022-12-31T16:03:32.122Z,81.35
2022-12-31T16:06:01.802Z,81.60
2022-12-31T16:08:34.795Z,81.78
2022-12-31T16:11:04.713Z,82.16
2022-12-31T16:13:34.780Z,82.80
2022-12-31T16:16:08.403Z,83.23
2022-12-31T16:18:42.965Z,83.06
2022-12-31T16:21:32.963Z,83.63
2022-12-31T16:24:27.076Z,83.89
2022-12-31T16:26:59.027Z,83.78
2022-12-31T16:29:27.308Z,84.51
2022-12-31T16:31:54.556Z,85.03
2022-12-31T16:34:24.601Z,85.53
2022-12-31T16:37:01.828Z,86.29
2022-12-31T16:39:34.630Z,86.38
2022-12-31T16:42:19.218Z,86.68
2022-12-31T16:44:48.024Z,87.16
2022-12-31T16:47:20.184Z,87.05
2022-12-31T16:50:09.174Z,87.52
2022-12-31T16:52:42.836Z,87.39
2022-12-31T16:55:15.541Z,87.52
2022-12-31T16:57:46.199Z,87.79
2022-12-31T17:00:18.562Z,87.91
2022-12-31T17:02:55.761Z,88.11
2022-12-31T17:05:26.038Z,88.60
2022-12-31T17:07:53.378Z,88.68
2022-12-31T17:10:26.574Z,88.60
2022-12-31T17:15:45.921Z,89.07
2022-12-31T17:18:20.506Z,89.62
2022-12-31T17:20:50.165Z,90.09
2022-12-31T17:23:28.778Z,90.79
2022-12-31T17:26:22.263Z,91.29
2022-12-31T17:28:51.706Z,91.22
2022-12-31T17:31:26.097Z,91.52
2022-12-31T17:34:04.195Z,91.85
2022-12-31T17:36:31.330Z,92.23
2022-12-31T17:39:18.962Z,92.57
2022-12-31T17:41:47.731Z,92.55
2022-12-31T17:44:19.840Z,92.72
2022-12-31T17:46:49.128Z,92.48
2022-12-31T17:49:16.284Z,92.70
2022-12-31T17:51:47.541Z,92.01
2022-12-31T17:54:15.480Z,91.87
2022-12-31T17:56:43.005Z,91.63
2022-12-31T17:59:27.131Z,91.51
2022-12-31T18:01:54.543Z,90.90
2022-12-31T18:04:21.888Z,90.85
2022-12-31T18:06:48.930Z,90.60
2022-12-31T18:09:15.930Z,90.16
2022-12-31T18:11:43.160Z,90.06
2022-12-31T18:14:14.705Z,89.50
2022-12-31T18:16:42.219Z,89.13
2022-12-31T18:19:23.470Z,87.63
2022-12-31T18:21:51.032Z,88.05
2022-12-31T18:24:22.788Z,88.02
2022-12-31T18:26:52.881Z,88.05
2022-12-31T18:29:19.870Z,88.15
2022-12-31T18:31:48.692Z,87.64
2022-12-31T18:34:17.648Z,87.68
2022-12-31T18:36:45.421Z,87.57
2022-12-31T18:39:12.488Z,87.66
2022-12-31T18:41:43.898Z,87.48
2022-12-31T18:44:13.345Z,87.19
2022-12-31T18:46:41.622Z,86.47
2022-12-31T18:49:09.439Z,86.38
2022-12-31T18:51:36.532Z,85.01
2022-12-31T18:54:04.507Z,83.91
2022-12-31T18:56:31.662Z,83.90
2022-12-31T18:58:58.784Z,81.39
2022-12-31T19:01:31.508Z,80.01
2022-12-31T19:04:01.212Z,79.93
2022-12-31T19:06:29.556Z,78.92
2022-12-31T19:08:56.936Z,77.50
2022-12-31T19:11:24.136Z,77.89
2022-12-31T19:13:51.213Z,76.88
2022-12-31T19:16:18.346Z,77.78
2022-12-31T19:18:45.776Z,77.55
2022-12-31T19:21:19.599Z,75.63
2022-12-31T19:23:47.124Z,76.13
2022-12-31T19:26:19.987Z,75.20
2022-12-31T19:28:48.371Z,75.24
2022-12-31T19:31:16.466Z,74.15
2022-12-31T19:33:44.403Z,74.81
2022-12-31T19:36:20.049Z,74.44
2022-12-31T19:38:47.186Z,74.43
2022-12-31T19:41:19.288Z,74.42
2022-12-31T19:43:47.778Z,74.42
2022-12-31T19:46:16.191Z,73.50
2022-12-31T19:48:43.782Z,73.49
2022-12-31T19:51:15.501Z,72.89
2022-12-31T19:53:42.407Z,74.04
2022-12-31T19:56:13.715Z,73.93
2022-12-31T19:58:41.207Z,74.50
2022-12-31T20:01:12.792Z,74.74
2022-12-31T20:03:39.902Z,74.35
2022-12-31T20:06:09.882Z,74.71
2022-12-31T20:08:38.737Z,74.81
2022-12-31T20:11:11.430Z,75.54
2022-12-31T20:13:39.784Z,75.03
2022-12-31T20:16:13.078Z,75.52
2022-12-31T20:18:41.460Z,75.81
2022-12-31T20:21:10.907Z,74.88
2022-12-31T20:23:38.123Z,75.66
2022-12-31T20:26:05.304Z,75.75
2022-12-31T20:28:32.324Z,75.83
2022-12-31T20:31:05.206Z,74.22
2022-12-31T20:33:32.291Z,75.49
2022-12-31T20:36:06.303Z,75.49
2022-12-31T20:38:33.776Z,76.17
2022-12-31T20:41:11.786Z,75.59
2022-12-31T20:43:38.830Z,75.02
2022-12-31T20:46:15.378Z,75.59
2022-12-31T20:48:44.070Z,75.36
2022-12-31T20:51:11.963Z,75.85
2022-12-31T20:53:39.062Z,75.17
2022-12-31T20:56:07.381Z,74.61
2022-12-31T20:58:34.752Z,74.71
2022-12-31T21:01:06.268Z,74.70
2022-12-31T21:04:04.511Z,73.90
2022-12-31T21:06:23.699Z,73.96
2022-12-31T21:08:51.035Z,72.67
2022-12-31T21:11:18.069Z,73.30
2022-12-31T21:13:45.115Z,72.79
2022-12-31T21:16:12.191Z,73.20
2022-12-31T21:18:39.261Z,73.84
2022-12-31T21:21:06.542Z,74.08
2022-12-31T21:23:33.544Z,74.35
2022-12-31T21:26:00.609Z,74.23
2022-12-31T21:28:27.585Z,74.87
2022-12-31T21:31:02.670Z,75.35
2022-12-31T21:33:30.100Z,76.03
2022-12-31T21:36:02.605Z,75.67
2022-12-31T21:38:31.503Z,76.63
2022-12-31T21:41:07.291Z,77.26
2022-12-31T21:43:34.765Z,77.06
2022-12-31T21:46:04.831Z,77.58
2022-12-31T21:48:32.851Z,77.59
2022-12-31T21:51:09.877Z,78.21
2022-12-31T21:53:37.639Z,77.93
2022-12-31T21:56:05.494Z,78.33
2022-12-31T21:58:32.557Z,78.12
2022-12-31T22:01:00.249Z,77.26
2022-12-31T22:03:28.477Z,77.52
2022-12-31T22:06:18.115Z,77.91
2022-12-31T22:08:46.315Z,77.78
2022-12-31T22:11:14.090Z,77.67
2022-12-31T22:13:41.509Z,77.77
2022-12-31T22:16:08.963Z,78.06
2022-12-31T22:18:37.998Z,78.47
2022-12-31T22:21:18.368Z,78.39
2022-12-31T22:23:57.157Z,79.02
2022-12-31T22:26:26.915Z,79.25
2022-12-31T22:28:54.786Z,79.59
2022-12-31T22:31:23.371Z,79.37
2022-12-31T22:33:50.561Z,79.60
2022-12-31T22:36:23.399Z,79.88
2022-12-31T22:38:54.275Z,80.27
2022-12-31T22:41:22.472Z,80.47
2022-12-31T22:43:54.955Z,80.18
2022-12-31T22:46:27.812Z,80.12
2022-12-31T22:48:58.617Z,78.88
2022-12-31T22:51:54.906Z,79.62
2022-12-31T22:54:14.717Z,80.05
2022-12-31T22:56:41.931Z,79.49
2022-12-31T22:59:09.184Z,79.30
2022-12-31T23:01:36.986Z,78.81
2022-12-31T23:04:04.794Z,78.69
2022-12-31T23:06:32.396Z,78.96
2022-12-31T23:08:59.392Z,77.87
2022-12-31T23:11:26.517Z,77.55
2022-12-31T23:13:53.528Z,77.89
2022-12-31T23:16:21.377Z,77.62
2022-12-31T23:18:48.385Z,77.48
2022-12-31T23:21:15.864Z,76.51
2022-12-31T23:23:42.848Z,76.91
2022-12-31T23:26:09.957Z,77.49
2022-12-31T23:28:36.982Z,76.93
2022-12-31T23:31:06.243Z,77.16
2022-12-31T23:33:33.405Z,77.18
2022-12-31T23:36:07.266Z,76.95
2022-12-31T23:38:34.359Z,75.40
2022-12-31T23:41:10.699Z,76.33
2022-12-31T23:43:37.743Z,76.05
2022-12-31T23:46:04.787Z,76.07
2022-12-31T23:48:31.830Z,76.63
2022-12-31T23:50:58.859Z,76.81
2022-12-31T23:53:25.947Z,76.79
2022-12-31T23:55:53.236Z,76.62
2022-12-31T23:58:20.500Z,77.08
